PWSweather.com
Personal Weather Stations
Station Observations
KMAMEDFI2
Medfield, MA 02052

Medfield, MA 02052

Lat: 42.1900822, Lon: -71.3296889

Elevation: 138

Station Type: Rainwise WS MK-III

http://www.medfieldweather.com

Latest ConditionsUpdated 5:00:00 PM EDT Friday, May 25, 2018
Currently Today's Max Today's Min Today's Average
Temperature 86.2°F30.1°C 86.7°F30.4°C 50.3°F10.2°C 67.5°F19.7°C
Dew Point 49.3°F9.6°C 56.4°F13.6°C 48.9°F9.4°C 51.9°F11.1°C
Winds 4.6 mph W7.4 kmh W 9.2 mph NW14.8 kmh NW - 2.9 mph 4.7 kmh
Wind Gusts 9.2 mph14.8 kmh 16.1 mph25.9 kmh - -
Humidity 28% 97% 28% 65%
Pressure 29.90 in1012.5 mb 30.10 in1019.3 mb 29.90 in1012.5 mb -
Hour Temp Dew Point Humidity Winds Wind Gusts Pressure Precip Precip Rate Daily Precip Total
05:00 PM 86.2°F30.1°C 49.3°F9.6°C 28% 4.6 mph W7.4 kmh W 9.2 mph14.8 kmh 29.90 in1012.5 mb - 0.00 in0.0 mm 0.00 in0.0 mm
04:50 PM 86.4°F30.2°C 51.3°F10.7°C 30% 4.6 mph NW7.4 kmh NW 10.4 mph16.7 kmh 29.90 in1012.5 mb - 0.00 in0.0 mm 0.00 in0.0 mm
04:40 PM 86.7°F30.4°C 51.6°F10.9°C 30% 4.6 mph WSW7.4 kmh WSW 5.8 mph9.3 kmh 29.90 in1012.5 mb - 0.00 in0.0 mm 0.00 in0.0 mm
04:30 PM 86.4°F30.2°C 50.4°F10.2°C 29% 6.9 mph WSW11.1 kmh WSW 15.0 mph24.1 kmh 29.91 in1012.9 mb - 0.00 in0.0 mm 0.00 in0.0 mm
04:20 PM 86.5°F30.3°C 50.5°F10.3°C 29% 5.8 mph WSW9.3 kmh WSW 15.0 mph24.1 kmh 29.91 in1012.9 mb - 0.00 in0.0 mm 0.00 in0.0 mm
04:10 PM 86.1°F30.1°C 51.1°F10.6°C 30% 5.8 mph SW9.3 kmh SW 5.8 mph9.3 kmh 29.91 in1012.9 mb - 0.00 in0.0 mm 0.00 in0.0 mm
04:00 PM 86.0°F30.0°C 51.0°F10.6°C 30% 4.6 mph NW7.4 kmh NW 9.2 mph14.8 kmh 29.92 in1013.2 mb - 0.00 in0.0 mm 0.00 in0.0 mm
03:50 PM 86.4°F30.2°C 50.4°F10.2°C 29% 3.5 mph SW5.6 kmh SW 9.2 mph14.8 kmh 29.92 in1013.2 mb - 0.00 in0.0 mm 0.00 in0.0 mm
03:40 PM 85.9°F29.9°C 50.0°F10.0°C 29% 5.8 mph WSW9.3 kmh WSW 8.1 mph13.0 kmh 29.92 in1013.2 mb - 0.00 in0.0 mm 0.00 in0.0 mm
03:30 PM 85.6°F29.8°C 49.7°F9.8°C 29% 3.5 mph S5.6 kmh S 8.1 mph13.0 kmh 29.92 in1013.2 mb - 0.00 in0.0 mm 0.00 in0.0 mm
03:20 PM 85.7°F29.8°C 48.9°F9.4°C 28% 5.8 mph WSW9.3 kmh WSW 8.1 mph13.0 kmh 29.93 in1013.5 mb - 0.00 in0.0 mm 0.00 in0.0 mm
03:10 PM 85.9°F29.9°C 51.8°F11.0°C 31% 5.8 mph WSW9.3 kmh WSW 16.1 mph25.9 kmh 29.93 in1013.5 mb - 0.00 in0.0 mm 0.00 in0.0 mm
03:00 PM 85.7°F29.8°C 51.6°F10.9°C 31% 4.6 mph S7.4 kmh S 8.1 mph13.0 kmh 29.93 in1013.5 mb - 0.00 in0.0 mm 0.00 in0.0 mm
02:50 PM 85.9°F29.9°C 52.6°F11.4°C 32% 5.8 mph NW9.3 kmh NW 13.8 mph22.2 kmh 29.93 in1013.5 mb - 0.00 in0.0 mm 0.00 in0.0 mm
02:40 PM 85.9°F29.9°C 52.6°F11.4°C 32% 5.8 mph SW9.3 kmh SW 15.0 mph24.1 kmh 29.93 in1013.5 mb - 0.00 in0.0 mm 0.00 in0.0 mm
02:30 PM 85.6°F29.8°C 52.4°F11.3°C 32% 4.6 mph NW7.4 kmh NW 9.2 mph14.8 kmh 29.94 in1013.9 mb - 0.00 in0.0 mm 0.00 in0.0 mm
02:20 PM 85.6°F29.8°C 53.2°F11.8°C 33% 4.6 mph WSW7.4 kmh WSW 9.2 mph14.8 kmh 29.95 in1014.2 mb - 0.00 in0.0 mm 0.00 in0.0 mm
02:10 PM 84.9°F29.4°C 51.7°F10.9°C 32% 6.9 mph SW11.1 kmh SW 12.7 mph20.4 kmh 29.96 in1014.6 mb - 0.00 in0.0 mm 0.00 in0.0 mm
02:00 PM 84.8°F29.3°C 52.5°F11.4°C 33% 4.6 mph SW7.4 kmh SW 9.2 mph14.8 kmh 29.96 in1014.6 mb - 0.00 in0.0 mm 0.00 in0.0 mm
01:50 PM 85.4°F29.7°C 52.2°F11.2°C 32% 4.6 mph SW7.4 kmh SW 6.9 mph11.1 kmh 29.96 in1014.6 mb - 0.00 in0.0 mm 0.00 in0.0 mm
01:40 PM 84.9°F29.4°C 50.0°F10.0°C 30% 4.6 mph WSW7.4 kmh WSW 6.9 mph11.1 kmh 29.96 in1014.6 mb - 0.00 in0.0 mm 0.00 in0.0 mm
01:30 PM 84.8°F29.3°C 52.5°F11.4°C 33% 5.8 mph W9.3 kmh W 15.0 mph24.1 kmh 29.96 in1014.6 mb - 0.00 in0.0 mm 0.00 in0.0 mm
01:20 PM 84.6°F29.2°C 52.3°F11.3°C 33% 3.5 mph WSW5.6 kmh WSW 2.3 mph3.7 kmh 29.97 in1014.9 mb - 0.00 in0.0 mm 0.00 in0.0 mm
01:10 PM 84.4°F29.1°C 49.6°F9.8°C 30% 9.2 mph WSW14.8 kmh WSW 13.8 mph22.2 kmh 29.97 in1014.9 mb - 0.00 in0.0 mm 0.00 in0.0 mm
01:00 PM 83.9°F28.8°C 50.0°F10.0°C 31% 6.9 mph W11.1 kmh W 10.4 mph16.7 kmh 29.97 in1014.9 mb - 0.00 in0.0 mm 0.00 in0.0 mm
12:50 PM 83.9°F28.8°C 50.8°F10.4°C 32% 6.9 mph SE11.1 kmh SE 9.2 mph14.8 kmh 29.98 in1015.2 mb - 0.00 in0.0 mm 0.00 in0.0 mm
12:40 PM 83.3°F28.5°C 49.5°F9.7°C 31% 5.8 mph WSW9.3 kmh WSW 5.8 mph9.3 kmh 29.98 in1015.2 mb - 0.00 in0.0 mm 0.00 in0.0 mm
12:30 PM 83.6°F28.7°C 51.4°F10.8°C 33% 5.8 mph W9.3 kmh W 9.2 mph14.8 kmh 29.99 in1015.6 mb - 0.00 in0.0 mm 0.00 in0.0 mm
12:20 PM 84.2°F29.0°C 52.7°F11.5°C 34% 4.6 mph W7.4 kmh W 10.4 mph16.7 kmh 29.99 in1015.6 mb - 0.00 in0.0 mm 0.00 in0.0 mm
12:10 PM 84.2°F29.0°C 53.6°F12.0°C 35% 5.8 mph W9.3 kmh W 9.2 mph14.8 kmh 30.00 in1015.9 mb - 0.00 in0.0 mm 0.00 in0.0 mm
12:00 PM 83.8°F28.8°C 52.4°F11.3°C 34% 4.6 mph WSW7.4 kmh WSW 9.2 mph14.8 kmh 30.00 in1015.9 mb - 0.00 in0.0 mm 0.00 in0.0 mm
11:50 AM 83.3°F28.5°C 52.0°F11.1°C 34% 9.2 mph NW14.8 kmh NW 10.4 mph16.7 kmh 30.00 in1015.9 mb - 0.00 in0.0 mm 0.00 in0.0 mm
11:40 AM 83.2°F28.4°C 53.4°F11.9°C 36% 5.8 mph SSW9.3 kmh SSW 9.2 mph14.8 kmh 30.01 in1016.3 mb - 0.00 in0.0 mm 0.00 in0.0 mm
11:30 AM 82.2°F27.9°C 54.1°F12.3°C 38% 3.5 mph WSW5.6 kmh WSW 4.6 mph7.4 kmh 30.02 in1016.6 mb - 0.00 in0.0 mm 0.00 in0.0 mm
11:20 AM 81.8°F27.7°C 53.7°F12.1°C 38% 3.5 mph SE5.6 kmh SE 2.3 mph3.7 kmh 30.02 in1016.6 mb - 0.00 in0.0 mm 0.00 in0.0 mm
11:10 AM 81.6°F27.6°C 54.2°F12.3°C 39% 2.3 mph S3.7 kmh S 8.1 mph13.0 kmh 30.02 in1016.6 mb - 0.00 in0.0 mm 0.00 in0.0 mm
11:00 AM 80.8°F27.1°C 56.2°F13.4°C 43% 2.3 mph WSW3.7 kmh WSW 5.8 mph9.3 kmh 30.03 in1016.9 mb - 0.00 in0.0 mm 0.00 in0.0 mm
10:50 AM 80.4°F26.9°C 55.2°F12.9°C 42% 3.5 mph SW5.6 kmh SW 5.8 mph9.3 kmh 30.03 in1016.9 mb - 0.00 in0.0 mm 0.00 in0.0 mm
10:40 AM 80.0°F26.7°C 54.2°F12.3°C 41% 6.9 mph W11.1 kmh W 9.2 mph14.8 kmh 30.03 in1016.9 mb - 0.00 in0.0 mm 0.00 in0.0 mm
10:30 AM 79.4°F26.3°C 54.3°F12.4°C 42% 2.3 mph SE3.7 kmh SE 2.3 mph3.7 kmh 30.04 in1017.3 mb - 0.00 in0.0 mm 0.00 in0.0 mm
10:20 AM 78.8°F26.0°C 54.4°F12.4°C 43% 3.5 mph SW5.6 kmh SW 8.1 mph13.0 kmh 30.04 in1017.3 mb - 0.00 in0.0 mm 0.00 in0.0 mm
10:10 AM 77.4°F25.2°C 55.6°F13.1°C 47% 2.3 mph WSW3.7 kmh WSW 6.9 mph11.1 kmh 30.04 in1017.3 mb - 0.00 in0.0 mm 0.00 in0.0 mm
10:00 AM 76.4°F24.7°C 54.7°F12.6°C 47% 3.5 mph SW5.6 kmh SW 2.3 mph3.7 kmh 30.04 in1017.3 mb - 0.00 in0.0 mm 0.00 in0.0 mm
09:50 AM 75.5°F24.2°C 55.0°F12.8°C 49% 2.3 mph NNW3.7 kmh NNW 2.3 mph3.7 kmh 30.04 in1017.3 mb - 0.00 in0.0 mm 0.00 in0.0 mm
09:40 AM 74.2°F23.4°C 55.5°F13.1°C 52% 2.3 mph WSW3.7 kmh WSW 5.8 mph9.3 kmh 30.04 in1017.3 mb - 0.00 in0.0 mm 0.00 in0.0 mm
09:30 AM 73.4°F23.0°C 54.7°F12.6°C 52% 5.8 mph SSE9.3 kmh SSE 6.9 mph11.1 kmh 30.04 in1017.3 mb - 0.00 in0.0 mm 0.00 in0.0 mm
09:20 AM 72.7°F22.6°C 56.1°F13.4°C 56% 3.5 mph W5.6 kmh W 9.2 mph14.8 kmh 30.04 in1017.3 mb - 0.00 in0.0 mm 0.00 in0.0 mm
09:10 AM 71.4°F21.9°C 56.4°F13.6°C 59% 3.5 mph W5.6 kmh W 6.9 mph11.1 kmh 30.03 in1016.9 mb - 0.00 in0.0 mm 0.00 in0.0 mm
09:00 AM 70.1°F21.2°C 55.6°F13.1°C 60% 3.5 mph WSW5.6 kmh WSW 4.6 mph7.4 kmh 30.03 in1016.9 mb - 0.00 in0.0 mm 0.00 in0.0 mm
08:50 AM 69.2°F20.7°C 55.2°F12.9°C 61% 2.3 mph W3.7 kmh W 2.3 mph3.7 kmh 30.03 in1016.9 mb - 0.00 in0.0 mm 0.00 in0.0 mm
08:40 AM 68.1°F20.1°C 55.5°F13.1°C 64% 2.3 mph W3.7 kmh W 6.9 mph11.1 kmh 30.03 in1016.9 mb - 0.00 in0.0 mm 0.00 in0.0 mm
08:30 AM 66.8°F19.3°C 55.9°F13.3°C 68% 1.2 mph SE1.9 kmh SE 5.8 mph9.3 kmh 30.02 in1016.6 mb - 0.00 in0.0 mm 0.00 in0.0 mm
08:20 AM 65.2°F18.4°C 55.2°F12.9°C 70% 2.3 mph S3.7 kmh S 2.3 mph3.7 kmh 30.02 in1016.6 mb - 0.00 in0.0 mm 0.00 in0.0 mm
08:10 AM 63.7°F17.6°C 55.3°F12.9°C 74% 2.3 mph S3.7 kmh S 5.8 mph9.3 kmh 30.02 in1016.6 mb - 0.00 in0.0 mm 0.00 in0.0 mm
08:00 AM 61.9°F16.6°C 54.3°F12.4°C 76% 1.2 mph SW1.9 kmh SW 2.3 mph3.7 kmh 30.02 in1016.6 mb - 0.00 in0.0 mm 0.00 in0.0 mm
07:50 AM 60.3°F15.7°C 54.1°F12.3°C 80% 2.3 mph W3.7 kmh W 4.6 mph7.4 kmh 30.02 in1016.6 mb - 0.00 in0.0 mm 0.00 in0.0 mm
07:40 AM 58.9°F14.9°C 53.4°F11.9°C 82% 2.3 mph SW3.7 kmh SW 2.3 mph3.7 kmh 30.02 in1016.6 mb - 0.00 in0.0 mm 0.00 in0.0 mm
07:30 AM 57.9°F14.4°C 53.4°F11.9°C 85% 2.3 mph WSW3.7 kmh WSW 4.6 mph7.4 kmh 30.02 in1016.6 mb - 0.00 in0.0 mm 0.00 in0.0 mm
07:20 AM 56.9°F13.8°C 53.1°F11.7°C 87% 1.2 mph WSW1.9 kmh WSW 1.2 mph1.9 kmh 30.02 in1016.6 mb - 0.00 in0.0 mm 0.00 in0.0 mm
07:10 AM 56.1°F13.4°C 52.6°F11.4°C 88% 1.2 mph WNW1.9 kmh WNW 2.3 mph3.7 kmh 30.01 in1016.3 mb - 0.00 in0.0 mm 0.00 in0.0 mm
07:00 AM 55.5°F13.1°C 52.6°F11.4°C 90% 1.2 mph WNW1.9 kmh WNW 1.2 mph1.9 kmh 30.01 in1016.3 mb - 0.00 in0.0 mm 0.00 in0.0 mm
06:50 AM 54.9°F12.7°C 52.0°F11.1°C 90% 1.2 mph SSE1.9 kmh SSE 2.3 mph3.7 kmh 30.01 in1016.3 mb - 0.00 in0.0 mm 0.00 in0.0 mm
06:40 AM 54.5°F12.5°C 51.9°F11.1°C 91% 2.3 mph SW3.7 kmh SW 2.3 mph3.7 kmh 30.01 in1016.3 mb - 0.00 in0.0 mm 0.00 in0.0 mm
06:30 AM 53.9°F12.2°C 51.3°F10.7°C 91% 1.2 mph WSW1.9 kmh WSW 2.3 mph3.7 kmh 30.01 in1016.3 mb - 0.00 in0.0 mm 0.00 in0.0 mm
06:20 AM 53.4°F11.9°C 51.4°F10.8°C 93% 2.3 mph SSW3.7 kmh SSW 5.8 mph9.3 kmh 30.01 in1016.3 mb - 0.00 in0.0 mm 0.00 in0.0 mm
06:10 AM 52.9°F11.6°C 51.2°F10.7°C 94% 2.3 mph SW3.7 kmh SW 2.3 mph3.7 kmh 30.01 in1016.3 mb - 0.00 in0.0 mm 0.00 in0.0 mm
06:00 AM 52.5°F11.4°C 51.1°F10.6°C 95% Calm Calm 2.3 mph3.7 kmh 30.01 in1016.3 mb - 0.00 in0.0 mm 0.00 in0.0 mm
05:50 AM 52.0°F11.1°C 50.9°F10.5°C 96% 1.2 mph N1.9 kmh N 2.3 mph3.7 kmh 30.01 in1016.3 mb - 0.00 in0.0 mm 0.00 in0.0 mm
05:40 AM 51.7°F10.9°C 50.9°F10.5°C 97% Calm Calm -- 30.01 in1016.3 mb - 0.00 in0.0 mm 0.00 in0.0 mm
05:30 AM 51.3°F10.7°C 50.5°F10.3°C 97% 2.3 mph SW3.7 kmh SW 2.3 mph3.7 kmh 30.01 in1016.3 mb - 0.00 in0.0 mm 0.00 in0.0 mm
05:20 AM 51.0°F10.6°C 50.2°F10.1°C 97% Calm Calm 1.2 mph1.9 kmh 30.01 in1016.3 mb - 0.00 in0.0 mm 0.00 in0.0 mm
05:10 AM 50.8°F10.4°C 50.0°F10.0°C 97% Calm Calm -- 30.00 in1015.9 mb - 0.00 in0.0 mm 0.00 in0.0 mm
05:00 AM 50.8°F10.4°C 50.0°F10.0°C 97% Calm Calm 1.2 mph1.9 kmh 30.00 in1015.9 mb - 0.00 in0.0 mm 0.00 in0.0 mm
04:50 AM 50.8°F10.4°C 50.0°F10.0°C 97% Calm Calm -- 30.00 in1015.9 mb - 0.00 in0.0 mm 0.00 in0.0 mm
04:40 AM 50.7°F10.4°C 49.9°F9.9°C 97% 2.3 mph SSE3.7 kmh SSE 2.3 mph3.7 kmh 30.01 in1016.3 mb - 0.00 in0.0 mm 0.00 in0.0 mm
04:30 AM 50.5°F10.3°C 49.7°F9.8°C 97% Calm Calm 2.3 mph3.7 kmh 30.01 in1016.3 mb - 0.00 in0.0 mm 0.00 in0.0 mm
04:20 AM 50.7°F10.4°C 49.9°F9.9°C 97% Calm Calm 1.2 mph1.9 kmh 30.01 in1016.3 mb - 0.00 in0.0 mm 0.00 in0.0 mm
04:10 AM 50.8°F10.4°C 50.0°F10.0°C 97% Calm Calm 1.2 mph1.9 kmh 30.01 in1016.3 mb - 0.00 in0.0 mm 0.00 in0.0 mm
04:00 AM 50.8°F10.4°C 50.0°F10.0°C 97% Calm Calm 2.3 mph3.7 kmh 30.02 in1016.6 mb - 0.00 in0.0 mm 0.00 in0.0 mm
03:50 AM 50.7°F10.4°C 49.9°F9.9°C 97% 1.2 mph SE1.9 kmh SE 2.3 mph3.7 kmh 30.02 in1016.6 mb - 0.00 in0.0 mm 0.00 in0.0 mm
03:40 AM 50.5°F10.3°C 49.7°F9.8°C 97% 1.2 mph S1.9 kmh S 1.2 mph1.9 kmh 30.02 in1016.6 mb - 0.00 in0.0 mm 0.00 in0.0 mm
03:30 AM 50.3°F10.2°C 49.5°F9.7°C 97% Calm Calm 2.3 mph3.7 kmh 30.02 in1016.6 mb - 0.00 in0.0 mm 0.00 in0.0 mm
03:20 AM 50.3°F10.2°C 49.5°F9.7°C 97% 1.2 mph NE1.9 kmh NE 1.2 mph1.9 kmh 30.02 in1016.6 mb - 0.00 in0.0 mm 0.00 in0.0 mm
03:10 AM 50.6°F10.3°C 49.8°F9.9°C 97% Calm Calm -- 30.03 in1016.9 mb - 0.00 in0.0 mm 0.00 in0.0 mm
03:00 AM 50.7°F10.4°C 49.9°F9.9°C 97% Calm Calm 4.6 mph7.4 kmh 30.04 in1017.3 mb - 0.00 in0.0 mm 0.00 in0.0 mm
02:50 AM 50.6°F10.3°C 49.8°F9.9°C 97% 1.2 mph S1.9 kmh S 2.3 mph3.7 kmh 30.04 in1017.3 mb - 0.00 in0.0 mm 0.00 in0.0 mm
02:40 AM 50.6°F10.3°C 49.8°F9.9°C 97% Calm Calm -- 30.04 in1017.3 mb - 0.00 in0.0 mm 0.00 in0.0 mm
02:30 AM 50.3°F10.2°C 49.5°F9.7°C 97% 2.3 mph S3.7 kmh S 2.3 mph3.7 kmh 30.05 in1017.6 mb - 0.00 in0.0 mm 0.00 in0.0 mm
02:20 AM 50.4°F10.2°C 49.6°F9.8°C 97% Calm Calm 1.2 mph1.9 kmh 30.06 in1017.9 mb - 0.00 in0.0 mm 0.00 in0.0 mm
02:10 AM 50.6°F10.3°C 49.8°F9.9°C 97% 1.2 mph SSE1.9 kmh SSE -- 30.06 in1017.9 mb - 0.00 in0.0 mm 0.00 in0.0 mm
02:00 AM 50.7°F10.4°C 49.9°F9.9°C 97% Calm Calm 2.3 mph3.7 kmh 30.06 in1017.9 mb - 0.00 in0.0 mm 0.00 in0.0 mm
01:50 AM 50.7°F10.4°C 49.9°F9.9°C 97% 1.2 mph SSW1.9 kmh SSW -- 30.06 in1017.9 mb - 0.00 in0.0 mm 0.00 in0.0 mm
01:40 AM 51.0°F10.6°C 50.2°F10.1°C 97% Calm Calm -- 30.07 in1018.3 mb - 0.00 in0.0 mm 0.00 in0.0 mm
01:30 AM 51.1°F10.6°C 50.3°F10.2°C 97% 1.2 mph ESE1.9 kmh ESE 1.2 mph1.9 kmh 30.08 in1018.6 mb - 0.00 in0.0 mm 0.00 in0.0 mm
01:20 AM 51.3°F10.7°C 50.5°F10.3°C 97% Calm Calm 1.2 mph1.9 kmh 30.08 in1018.6 mb - 0.00 in0.0 mm 0.00 in0.0 mm
01:10 AM 51.5°F10.8°C 50.4°F10.2°C 96% Calm Calm -- 30.08 in1018.6 mb - 0.00 in0.0 mm 0.00 in0.0 mm
01:00 AM 51.7°F10.9°C 50.6°F10.3°C 96% 3.5 mph S5.6 kmh S 2.3 mph3.7 kmh 30.08 in1018.6 mb - 0.00 in0.0 mm 0.00 in0.0 mm
12:50 AM 51.9°F11.1°C 50.5°F10.3°C 95% 1.2 mph SSE1.9 kmh SSE 2.3 mph3.7 kmh 30.09 in1019.0 mb - 0.00 in0.0 mm 0.00 in0.0 mm
12:40 AM 52.1°F11.2°C 50.7°F10.4°C 95% 1.2 mph S1.9 kmh S 2.3 mph3.7 kmh 30.09 in1019.0 mb - 0.00 in0.0 mm 0.00 in0.0 mm
12:30 AM 52.2°F11.2°C 51.1°F10.6°C 96% 1.2 mph S1.9 kmh S 1.2 mph1.9 kmh 30.09 in1019.0 mb - 0.00 in0.0 mm 0.00 in0.0 mm
12:20 AM 52.3°F11.3°C 51.2°F10.7°C 96% 1.2 mph SSE1.9 kmh SSE 2.3 mph3.7 kmh 30.10 in1019.3 mb - 0.00 in0.0 mm 0.00 in0.0 mm
12:10 AM 52.5°F11.4°C 51.4°F10.8°C 96% 2.3 mph SW3.7 kmh SW 2.3 mph3.7 kmh 30.10 in1019.3 mb - 0.00 in0.0 mm 0.00 in0.0 mm
12:00 AM 52.7°F11.5°C 51.6°F10.9°C 96% 1.2 mph WSW1.9 kmh WSW 2.3 mph3.7 kmh 30.10 in1019.3 mb - 0.00 in0.0 mm 0.00 in0.0 mm